sensor_id;sensor_type;location;lat;lon;timestamp;P1;durP1;ratioP1;P2;durP2;ratioP2
35691;SDS011;26978;44.830;-0.674;2022-07-04T00:00:27;8.65;;;1.52;;
35691;SDS011;26978;44.830;-0.674;2022-07-04T00:02:53;8.65;;;1.90;;
35691;SDS011;26978;44.830;-0.674;2022-07-04T00:05:19;8.65;;;1.67;;
35691;SDS011;26978;44.830;-0.674;2022-07-04T00:07:45;7.55;;;1.92;;
35691;SDS011;26978;44.830;-0.674;2022-07-04T00:10:14;11.35;;;2.03;;
35691;SDS011;26978;44.830;-0.674;2022-07-04T00:12:41;9.07;;;1.80;;
35691;SDS011;26978;44.830;-0.674;2022-07-04T00:15:07;15.07;;;2.00;;
35691;SDS011;26978;44.830;-0.674;2022-07-04T00:17:33;7.47;;;1.50;;
35691;SDS011;26978;44.830;-0.674;2022-07-04T00:19:59;10.15;;;2.42;;
35691;SDS011;26978;44.830;-0.674;2022-07-04T00:22:25;11.00;;;2.53;;
35691;SDS011;26978;44.830;-0.674;2022-07-04T00:24:51;11.23;;;2.17;;
35691;SDS011;26978;44.830;-0.674;2022-07-04T00:27:16;9.35;;;1.50;;
35691;SDS011;26978;44.830;-0.674;2022-07-04T00:29:42;9.48;;;1.73;;
35691;SDS011;26978;44.830;-0.674;2022-07-04T00:32:08;6.88;;;1.98;;
35691;SDS011;26978;44.830;-0.674;2022-07-04T00:34:34;7.35;;;1.70;;
35691;SDS011;26978;44.830;-0.674;2022-07-04T00:36:59;4.55;;;1.80;;
35691;SDS011;26978;44.830;-0.674;2022-07-04T00:39:25;14.05;;;2.10;;
35691;SDS011;26978;44.830;-0.674;2022-07-04T00:41:51;10.00;;;1.85;;
35691;SDS011;26978;44.830;-0.674;2022-07-04T00:44:17;6.43;;;1.85;;
35691;SDS011;26978;44.830;-0.674;2022-07-04T00:46:43;5.43;;;1.58;;
35691;SDS011;26978;44.830;-0.674;2022-07-04T00:49:10;8.60;;;2.00;;
35691;SDS011;26978;44.830;-0.674;2022-07-04T00:51:37;7.47;;;1.80;;
35691;SDS011;26978;44.830;-0.674;2022-07-04T00:54:05;11.07;;;2.50;;
35691;SDS011;26978;44.830;-0.674;2022-07-04T00:56:35;14.05;;;2.88;;
35691;SDS011;26978;44.830;-0.674;2022-07-04T00:59:02;6.18;;;2.45;;
35691;SDS011;26978;44.830;-0.674;2022-07-04T01:01:28;13.25;;;2.85;;
35691;SDS011;26978;44.830;-0.674;2022-07-04T01:03:53;12.88;;;2.90;;
35691;SDS011;26978;44.830;-0.674;2022-07-04T01:06:20;11.07;;;2.85;;
35691;SDS011;26978;44.830;-0.674;2022-07-04T01:08:46;19.38;;;3.15;;
35691;SDS011;26978;44.830;-0.674;2022-07-04T01:11:12;9.43;;;2.30;;
35691;SDS011;26978;44.830;-0.674;2022-07-04T01:13:38;12.95;;;2.60;;
35691;SDS011;26978;44.830;-0.674;2022-07-04T01:16:06;13.27;;;2.53;;
35691;SDS011;26978;44.830;-0.674;2022-07-04T01:18:32;11.27;;;2.22;;
35691;SDS011;26978;44.830;-0.674;2022-07-04T01:20:57;11.50;;;2.75;;
35691;SDS011;26978;44.830;-0.674;2022-07-04T01:23:23;13.95;;;3.25;;
35691;SDS011;26978;44.830;-0.674;2022-07-04T01:25:49;14.13;;;2.65;;
35691;SDS011;26978;44.830;-0.674;2022-07-04T01:28:16;17.85;;;3.60;;
35691;SDS011;26978;44.830;-0.674;2022-07-04T01:30:44;7.30;;;2.88;;
35691;SDS011;26978;44.830;-0.674;2022-07-04T01:33:10;7.93;;;2.50;;
35691;SDS011;26978;44.830;-0.674;2022-07-04T01:35:36;14.82;;;3.15;;
35691;SDS011;26978;44.830;-0.674;2022-07-04T01:38:01;14.18;;;3.20;;
35691;SDS011;26978;44.830;-0.674;2022-07-04T01:40:27;17.00;;;3.78;;
35691;SDS011;26978;44.830;-0.674;2022-07-04T01:42:53;10.05;;;2.85;;
35691;SDS011;26978;44.830;-0.674;2022-07-04T01:45:19;9.85;;;2.70;;
35691;SDS011;26978;44.830;-0.674;2022-07-04T01:47:45;12.88;;;3.20;;
35691;SDS011;26978;44.830;-0.674;2022-07-04T01:50:10;7.18;;;2.42;;
35691;SDS011;26978;44.830;-0.674;2022-07-04T01:52:40;14.52;;;3.28;;
35691;SDS011;26978;44.830;-0.674;2022-07-04T01:55:06;16.15;;;3.13;;
35691;SDS011;26978;44.830;-0.674;2022-07-04T01:57:33;12.60;;;3.15;;
35691;SDS011;26978;44.830;-0.674;2022-07-04T01:59:59;12.80;;;3.08;;
35691;SDS011;26978;44.830;-0.674;2022-07-04T02:02:56;17.23;;;3.60;;
35691;SDS011;26978;44.830;-0.674;2022-07-04T02:05:22;12.95;;;3.75;;
35691;SDS011;26978;44.830;-0.674;2022-07-04T02:07:48;11.13;;;3.63;;
35691;SDS011;26978;44.830;-0.674;2022-07-04T02:10:14;10.98;;;3.30;;
35691;SDS011;26978;44.830;-0.674;2022-07-04T02:12:40;11.30;;;3.40;;
35691;SDS011;26978;44.830;-0.674;2022-07-04T02:15:24;14.80;;;3.35;;
35691;SDS011;26978;44.830;-0.674;2022-07-04T02:17:50;10.75;;;3.45;;
35691;SDS011;26978;44.830;-0.674;2022-07-04T02:20:16;10.52;;;3.75;;
35691;SDS011;26978;44.830;-0.674;2022-07-04T02:22:42;16.30;;;4.30;;
35691;SDS011;26978;44.830;-0.674;2022-07-04T02:25:07;14.50;;;3.95;;
35691;SDS011;26978;44.830;-0.674;2022-07-04T02:27:34;8.75;;;4.07;;
35691;SDS011;26978;44.830;-0.674;2022-07-04T02:29:59;15.50;;;4.38;;
35691;SDS011;26978;44.830;-0.674;2022-07-04T02:32:25;14.35;;;4.40;;
35691;SDS011;26978;44.830;-0.674;2022-07-04T02:34:51;11.40;;;3.88;;
35691;SDS011;26978;44.830;-0.674;2022-07-04T02:37:16;15.00;;;4.07;;
35691;SDS011;26978;44.830;-0.674;2022-07-04T02:39:42;17.35;;;4.50;;
35691;SDS011;26978;44.830;-0.674;2022-07-04T02:42:08;15.55;;;4.53;;
35691;SDS011;26978;44.830;-0.674;2022-07-04T02:44:34;10.60;;;4.03;;
35691;SDS011;26978;44.830;-0.674;2022-07-04T02:46:59;15.05;;;4.00;;
35691;SDS011;26978;44.830;-0.674;2022-07-04T02:49:25;23.25;;;4.32;;
35691;SDS011;26978;44.830;-0.674;2022-07-04T02:51:51;12.45;;;4.22;;
35691;SDS011;26978;44.830;-0.674;2022-07-04T02:54:17;14.40;;;4.05;;
35691;SDS011;26978;44.830;-0.674;2022-07-04T02:56:43;10.32;;;3.78;;
35691;SDS011;26978;44.830;-0.674;2022-07-04T02:59:08;14.32;;;4.35;;
35691;SDS011;26978;44.830;-0.674;2022-07-04T03:01:34;18.15;;;3.65;;
35691;SDS011;26978;44.830;-0.674;2022-07-04T03:04:00;17.63;;;4.40;;
35691;SDS011;26978;44.830;-0.674;2022-07-04T03:06:27;17.42;;;4.03;;
35691;SDS011;26978;44.830;-0.674;2022-07-04T03:08:53;17.52;;;4.07;;
35691;SDS011;26978;44.830;-0.674;2022-07-04T03:11:19;22.92;;;5.00;;
35691;SDS011;26978;44.830;-0.674;2022-07-04T03:13:45;17.33;;;4.68;;
35691;SDS011;26978;44.830;-0.674;2022-07-04T03:16:11;11.80;;;4.72;;
35691;SDS011;26978;44.830;-0.674;2022-07-04T03:18:37;16.95;;;4.50;;
35691;SDS011;26978;44.830;-0.674;2022-07-04T03:21:03;8.63;;;4.53;;
35691;SDS011;26978;44.830;-0.674;2022-07-04T03:23:32;12.40;;;4.00;;
35691;SDS011;26978;44.830;-0.674;2022-07-04T03:25:58;15.13;;;4.03;;
35691;SDS011;26978;44.830;-0.674;2022-07-04T03:28:25;24.48;;;4.40;;
35691;SDS011;26978;44.830;-0.674;2022-07-04T03:30:51;19.17;;;4.75;;
35691;SDS011;26978;44.830;-0.674;2022-07-04T03:33:17;13.88;;;4.28;;
35691;SDS011;26978;44.830;-0.674;2022-07-04T03:35:43;15.00;;;4.88;;
35691;SDS011;26978;44.830;-0.674;2022-07-04T03:38:09;15.43;;;4.80;;
35691;SDS011;26978;44.830;-0.674;2022-07-04T03:40:34;18.35;;;5.18;;
35691;SDS011;26978;44.830;-0.674;2022-07-04T03:43:01;13.68;;;4.50;;
35691;SDS011;26978;44.830;-0.674;2022-07-04T03:45:28;13.07;;;5.20;;
35691;SDS011;26978;44.830;-0.674;2022-07-04T03:47:54;24.95;;;6.28;;
35691;SDS011;26978;44.830;-0.674;2022-07-04T03:50:20;14.70;;;4.75;;
35691;SDS011;26978;44.830;-0.674;2022-07-04T03:52:45;18.00;;;5.93;;
35691;SDS011;26978;44.830;-0.674;2022-07-04T03:55:11;18.73;;;5.57;;
35691;SDS011;26978;44.830;-0.674;2022-07-04T03:57:37;10.93;;;5.32;;
35691;SDS011;26978;44.830;-0.674;2022-07-04T04:00:03;20.10;;;5.75;;
35691;SDS011;26978;44.830;-0.674;2022-07-04T04:02:29;11.77;;;5.97;;
35691;SDS011;26978;44.830;-0.674;2022-07-04T04:04:55;21.15;;;5.97;;
35691;SDS011;26978;44.830;-0.674;2022-07-04T04:07:39;21.83;;;6.05;;
35691;SDS011;26978;44.830;-0.674;2022-07-04T04:10:05;11.07;;;6.10;;
35691;SDS011;26978;44.830;-0.674;2022-07-04T04:12:31;17.73;;;6.07;;
35691;SDS011;26978;44.830;-0.674;2022-07-04T04:14:56;15.52;;;6.30;;
35691;SDS011;26978;44.830;-0.674;2022-07-04T04:17:22;17.40;;;6.10;;
35691;SDS011;26978;44.830;-0.674;2022-07-04T04:19:48;24.88;;;6.05;;
35691;SDS011;26978;44.830;-0.674;2022-07-04T04:22:13;22.80;;;5.97;;
35691;SDS011;26978;44.830;-0.674;2022-07-04T04:24:39;17.08;;;5.80;;
35691;SDS011;26978;44.830;-0.674;2022-07-04T04:27:05;15.77;;;5.57;;
35691;SDS011;26978;44.830;-0.674;2022-07-04T04:29:30;20.55;;;5.63;;
35691;SDS011;26978;44.830;-0.674;2022-07-04T04:31:56;25.65;;;6.65;;
35691;SDS011;26978;44.830;-0.674;2022-07-04T04:34:22;20.92;;;6.50;;
35691;SDS011;26978;44.830;-0.674;2022-07-04T04:36:47;15.88;;;6.45;;
35691;SDS011;26978;44.830;-0.674;2022-07-04T04:39:13;15.55;;;6.53;;
35691;SDS011;26978;44.830;-0.674;2022-07-04T04:41:39;18.45;;;6.90;;
35691;SDS011;26978;44.830;-0.674;2022-07-04T04:44:05;18.85;;;7.63;;
35691;SDS011;26978;44.830;-0.674;2022-07-04T04:46:31;19.10;;;7.00;;
35691;SDS011;26978;44.830;-0.674;2022-07-04T04:48:57;20.42;;;7.10;;
35691;SDS011;26978;44.830;-0.674;2022-07-04T04:51:23;23.33;;;7.20;;
35691;SDS011;26978;44.830;-0.674;2022-07-04T04:53:49;16.73;;;7.60;;
35691;SDS011;26978;44.830;-0.674;2022-07-04T04:56:14;23.25;;;7.55;;
35691;SDS011;26978;44.830;-0.674;2022-07-04T04:58:40;24.98;;;7.82;;
35691;SDS011;26978;44.830;-0.674;2022-07-04T05:01:06;16.50;;;7.75;;
35691;SDS011;26978;44.830;-0.674;2022-07-04T05:03:32;18.88;;;6.68;;
35691;SDS011;26978;44.830;-0.674;2022-07-04T05:05:57;20.23;;;7.45;;
35691;SDS011;26978;44.830;-0.674;2022-07-04T05:08:23;17.83;;;6.85;;
35691;SDS011;26978;44.830;-0.674;2022-07-04T05:10:50;20.55;;;6.72;;
35691;SDS011;26978;44.830;-0.674;2022-07-04T05:13:16;20.48;;;6.72;;
35691;SDS011;26978;44.830;-0.674;2022-07-04T05:15:42;17.35;;;6.93;;
35691;SDS011;26978;44.830;-0.674;2022-07-04T05:18:08;20.02;;;7.18;;
35691;SDS011;26978;44.830;-0.674;2022-07-04T05:20:33;20.67;;;7.70;;
35691;SDS011;26978;44.830;-0.674;2022-07-04T05:22:59;13.90;;;7.20;;
35691;SDS011;26978;44.830;-0.674;2022-07-04T05:25:25;21.23;;;7.28;;
35691;SDS011;26978;44.830;-0.674;2022-07-04T05:27:51;13.88;;;7.07;;
35691;SDS011;26978;44.830;-0.674;2022-07-04T05:30:16;16.88;;;6.38;;
35691;SDS011;26978;44.830;-0.674;2022-07-04T05:32:42;14.40;;;6.85;;
35691;SDS011;26978;44.830;-0.674;2022-07-04T05:35:08;20.92;;;7.32;;
35691;SDS011;26978;44.830;-0.674;2022-07-04T05:37:34;23.15;;;7.70;;
35691;SDS011;26978;44.830;-0.674;2022-07-04T05:40:00;19.83;;;7.47;;
35691;SDS011;26978;44.830;-0.674;2022-07-04T05:42:27;18.27;;;6.78;;
35691;SDS011;26978;44.830;-0.674;2022-07-04T05:44:53;27.02;;;6.35;;
35691;SDS011;26978;44.830;-0.674;2022-07-04T05:47:18;16.80;;;6.53;;
35691;SDS011;26978;44.830;-0.674;2022-07-04T05:49:48;22.38;;;6.68;;
35691;SDS011;26978;44.830;-0.674;2022-07-04T05:52:14;14.80;;;5.30;;
35691;SDS011;26978;44.830;-0.674;2022-07-04T05:54:40;18.05;;;6.15;;
35691;SDS011;26978;44.830;-0.674;2022-07-04T05:57:06;22.63;;;5.85;;
35691;SDS011;26978;44.830;-0.674;2022-07-04T05:59:32;18.73;;;5.13;;
35691;SDS011;26978;44.830;-0.674;2022-07-04T06:01:57;16.55;;;5.85;;
35691;SDS011;26978;44.830;-0.674;2022-07-04T06:04:23;21.30;;;5.55;;
35691;SDS011;26978;44.830;-0.674;2022-07-04T06:06:49;17.13;;;5.05;;
35691;SDS011;26978;44.830;-0.674;2022-07-04T06:09:15;15.60;;;4.18;;
35691;SDS011;26978;44.830;-0.674;2022-07-04T06:11:41;23.30;;;5.18;;
35691;SDS011;26978;44.830;-0.674;2022-07-04T06:14:06;20.45;;;5.32;;
35691;SDS011;26978;44.830;-0.674;2022-07-04T06:16:32;23.00;;;5.43;;
35691;SDS011;26978;44.830;-0.674;2022-07-04T06:18:57;18.42;;;5.78;;
35691;SDS011;26978;44.830;-0.674;2022-07-04T06:21:23;12.50;;;5.60;;
35691;SDS011;26978;44.830;-0.674;2022-07-04T06:23:49;14.32;;;4.70;;
35691;SDS011;26978;44.830;-0.674;2022-07-04T06:26:14;18.88;;;4.60;;
35691;SDS011;26978;44.830;-0.674;2022-07-04T06:28:40;16.63;;;3.63;;
35691;SDS011;26978;44.830;-0.674;2022-07-04T06:31:06;14.25;;;3.78;;
35691;SDS011;26978;44.830;-0.674;2022-07-04T06:33:31;15.32;;;3.45;;
35691;SDS011;26978;44.830;-0.674;2022-07-04T06:35:57;15.15;;;3.70;;
35691;SDS011;26978;44.830;-0.674;2022-07-04T06:38:27;9.18;;;2.78;;
35691;SDS011;26978;44.830;-0.674;2022-07-04T06:40:55;15.07;;;3.42;;
35691;SDS011;26978;44.830;-0.674;2022-07-04T06:43:24;13.48;;;3.13;;
35691;SDS011;26978;44.830;-0.674;2022-07-04T06:45:50;13.27;;;3.55;;
35691;SDS011;26978;44.830;-0.674;2022-07-04T06:48:17;12.07;;;3.22;;
35691;SDS011;26978;44.830;-0.674;2022-07-04T06:50:43;11.35;;;3.38;;
35691;SDS011;26978;44.830;-0.674;2022-07-04T06:53:09;15.63;;;3.13;;
35691;SDS011;26978;44.830;-0.674;2022-07-04T06:55:39;9.65;;;2.90;;
35691;SDS011;26978;44.830;-0.674;2022-07-04T06:58:06;10.93;;;2.63;;
35691;SDS011;26978;44.830;-0.674;2022-07-04T07:00:33;19.50;;;3.65;;
35691;SDS011;26978;44.830;-0.674;2022-07-04T07:02:59;9.27;;;2.80;;
35691;SDS011;26978;44.830;-0.674;2022-07-04T07:05:26;9.02;;;2.13;;
35691;SDS011;26978;44.830;-0.674;2022-07-04T07:07:53;11.85;;;2.08;;
35691;SDS011;26978;44.830;-0.674;2022-07-04T07:10:19;12.00;;;1.70;;
35691;SDS011;26978;44.830;-0.674;2022-07-04T07:12:45;11.80;;;1.95;;
35691;SDS011;26978;44.830;-0.674;2022-07-04T07:15:11;8.13;;;2.28;;
35691;SDS011;26978;44.830;-0.674;2022-07-04T07:17:36;6.00;;;2.08;;
35691;SDS011;26978;44.830;-0.674;2022-07-04T07:20:03;8.40;;;2.35;;
35691;SDS011;26978;44.830;-0.674;2022-07-04T07:22:29;12.32;;;2.38;;
35691;SDS011;26978;44.830;-0.674;2022-07-04T07:24:54;6.10;;;1.75;;
35691;SDS011;26978;44.830;-0.674;2022-07-04T07:27:20;8.15;;;1.55;;
35691;SDS011;26978;44.830;-0.674;2022-07-04T07:29:46;9.27;;;2.03;;
35691;SDS011;26978;44.830;-0.674;2022-07-04T07:32:12;3.78;;;1.45;;
35691;SDS011;26978;44.830;-0.674;2022-07-04T07:34:37;5.88;;;1.30;;
35691;SDS011;26978;44.830;-0.674;2022-07-04T07:37:03;7.22;;;1.75;;
35691;SDS011;26978;44.830;-0.674;2022-07-04T07:39:29;7.22;;;1.70;;
35691;SDS011;26978;44.830;-0.674;2022-07-04T07:41:55;7.13;;;1.40;;
35691;SDS011;26978;44.830;-0.674;2022-07-04T07:44:20;10.45;;;1.63;;
35691;SDS011;26978;44.830;-0.674;2022-07-04T07:46:46;10.00;;;1.42;;
35691;SDS011;26978;44.830;-0.674;2022-07-04T07:49:12;8.57;;;1.30;;
35691;SDS011;26978;44.830;-0.674;2022-07-04T07:51:37;8.00;;;1.40;;
35691;SDS011;26978;44.830;-0.674;2022-07-04T07:54:03;5.57;;;1.25;;
35691;SDS011;26978;44.830;-0.674;2022-07-04T07:56:29;9.00;;;1.50;;
35691;SDS011;26978;44.830;-0.674;2022-07-04T07:58:54;5.10;;;1.23;;
35691;SDS011;26978;44.830;-0.674;2022-07-04T08:01:20;8.48;;;1.10;;
35691;SDS011;26978;44.830;-0.674;2022-07-04T08:03:46;6.38;;;1.33;;
35691;SDS011;26978;44.830;-0.674;2022-07-04T08:06:31;11.73;;;1.13;;
35691;SDS011;26978;44.830;-0.674;2022-07-04T08:08:58;9.77;;;1.35;;
35691;SDS011;26978;44.830;-0.674;2022-07-04T08:11:24;5.10;;;1.13;;
35691;SDS011;26978;44.830;-0.674;2022-07-04T08:13:50;7.57;;;1.33;;
35691;SDS011;26978;44.830;-0.674;2022-07-04T08:16:16;5.05;;;2.00;;
35691;SDS011;26978;44.830;-0.674;2022-07-04T08:18:42;3.05;;;1.00;;
35691;SDS011;26978;44.830;-0.674;2022-07-04T08:21:08;11.70;;;1.90;;
35691;SDS011;26978;44.830;-0.674;2022-07-04T08:23:34;3.15;;;0.95;;
35691;SDS011;26978;44.830;-0.674;2022-07-04T08:26:02;4.70;;;1.10;;
35691;SDS011;26978;44.830;-0.674;2022-07-04T08:28:29;6.78;;;1.20;;
35691;SDS011;26978;44.830;-0.674;2022-07-04T08:30:55;5.13;;;1.45;;
35691;SDS011;26978;44.830;-0.674;2022-07-04T08:33:24;4.15;;;1.15;;
35691;SDS011;26978;44.830;-0.674;2022-07-04T08:35:50;6.97;;;1.27;;
35691;SDS011;26978;44.830;-0.674;2022-07-04T08:38:18;4.47;;;1.30;;
35691;SDS011;26978;44.830;-0.674;2022-07-04T08:40:44;7.70;;;1.20;;
35691;SDS011;26978;44.830;-0.674;2022-07-04T08:43:14;7.45;;;1.42;;
35691;SDS011;26978;44.830;-0.674;2022-07-04T08:45:40;4.03;;;1.10;;
35691;SDS011;26978;44.830;-0.674;2022-07-04T08:48:08;4.72;;;1.10;;
35691;SDS011;26978;44.830;-0.674;2022-07-04T08:53:04;6.65;;;1.40;;
35691;SDS011;26978;44.830;-0.674;2022-07-04T08:55:34;5.82;;;1.20;;
35691;SDS011;26978;44.830;-0.674;2022-07-04T08:58:19;4.38;;;1.08;;
35691;SDS011;26978;44.830;-0.674;2022-07-04T09:00:54;9.40;;;1.10;;
35691;SDS011;26978;44.830;-0.674;2022-07-04T09:03:22;7.97;;;1.70;;
35691;SDS011;26978;44.830;-0.674;2022-07-04T09:05:48;4.35;;;1.10;;
35691;SDS011;26978;44.830;-0.674;2022-07-04T09:08:16;5.85;;;1.15;;
35691;SDS011;26978;44.830;-0.674;2022-07-04T09:10:42;5.75;;;0.95;;
35691;SDS011;26978;44.830;-0.674;2022-07-04T09:13:09;6.25;;;1.50;;
35691;SDS011;26978;44.830;-0.674;2022-07-04T09:15:35;3.13;;;1.05;;
35691;SDS011;26978;44.830;-0.674;2022-07-04T09:18:02;7.32;;;1.42;;
35691;SDS011;26978;44.830;-0.674;2022-07-04T09:20:29;3.65;;;1.50;;
35691;SDS011;26978;44.830;-0.674;2022-07-04T09:22:56;6.22;;;1.42;;
35691;SDS011;26978;44.830;-0.674;2022-07-04T09:25:23;5.30;;;1.13;;
35691;SDS011;26978;44.830;-0.674;2022-07-04T09:27:54;6.75;;;1.40;;
35691;SDS011;26978;44.830;-0.674;2022-07-04T09:30:22;4.85;;;1.63;;
35691;SDS011;26978;44.830;-0.674;2022-07-04T09:32:55;10.32;;;1.40;;
35691;SDS011;26978;44.830;-0.674;2022-07-04T09:35:26;13.85;;;1.70;;
35691;SDS011;26978;44.830;-0.674;2022-07-04T09:37:55;11.82;;;1.65;;
35691;SDS011;26978;44.830;-0.674;2022-07-04T09:40:31;7.85;;;1.55;;
35691;SDS011;26978;44.830;-0.674;2022-07-04T09:43:19;3.97;;;1.63;;
35691;SDS011;26978;44.830;-0.674;2022-07-04T09:45:57;3.17;;;1.10;;
35691;SDS011;26978;44.830;-0.674;2022-07-04T09:48:25;3.70;;;1.48;;
35691;SDS011;26978;44.830;-0.674;2022-07-04T09:50:51;9.77;;;1.50;;
35691;SDS011;26978;44.830;-0.674;2022-07-04T09:53:17;7.35;;;1.42;;
35691;SDS011;26978;44.830;-0.674;2022-07-04T09:55:43;7.32;;;1.20;;
35691;SDS011;26978;44.830;-0.674;2022-07-04T09:58:14;4.93;;;1.40;;
35691;SDS011;26978;44.830;-0.674;2022-07-04T10:00:41;3.75;;;1.13;;
35691;SDS011;26978;44.830;-0.674;2022-07-04T10:05:48;8.43;;;1.90;;
35691;SDS011;26978;44.830;-0.674;2022-07-04T10:08:26;5.22;;;1.33;;
35691;SDS011;26978;44.830;-0.674;2022-07-04T10:10:55;10.68;;;2.50;;
35691;SDS011;26978;44.830;-0.674;2022-07-04T10:13:22;6.95;;;1.10;;
35691;SDS011;26978;44.830;-0.674;2022-07-04T10:15:49;12.80;;;1.50;;
35691;SDS011;26978;44.830;-0.674;2022-07-04T10:18:17;10.30;;;1.45;;
35691;SDS011;26978;44.830;-0.674;2022-07-04T10:20:44;8.45;;;1.50;;
35691;SDS011;26978;44.830;-0.674;2022-07-04T10:23:11;7.28;;;1.17;;
35691;SDS011;26978;44.830;-0.674;2022-07-04T10:25:37;8.27;;;1.35;;
35691;SDS011;26978;44.830;-0.674;2022-07-04T10:28:03;2.60;;;1.30;;
35691;SDS011;26978;44.830;-0.674;2022-07-04T10:30:30;5.25;;;1.20;;
35691;SDS011;26978;44.830;-0.674;2022-07-04T10:33:00;3.10;;;1.15;;
35691;SDS011;26978;44.830;-0.674;2022-07-04T10:35:46;6.10;;;1.27;;
35691;SDS011;26978;44.830;-0.674;2022-07-04T10:38:15;5.07;;;1.80;;
35691;SDS011;26978;44.830;-0.674;2022-07-04T10:40:47;5.70;;;1.30;;
35691;SDS011;26978;44.830;-0.674;2022-07-04T10:46:17;7.65;;;1.08;;
35691;SDS011;26978;44.830;-0.674;2022-07-04T10:51:31;4.68;;;1.15;;
35691;SDS011;26978;44.830;-0.674;2022-07-04T10:54:02;2.45;;;0.80;;
35691;SDS011;26978;44.830;-0.674;2022-07-04T10:56:39;6.82;;;1.10;;
35691;SDS011;26978;44.830;-0.674;2022-07-04T11:01:45;7.35;;;1.00;;
35691;SDS011;26978;44.830;-0.674;2022-07-04T11:07:21;4.93;;;1.00;;
35691;SDS011;26978;44.830;-0.674;2022-07-04T11:20:22;5.28;;;1.10;;
35691;SDS011;26978;44.830;-0.674;2022-07-04T11:22:49;6.35;;;1.20;;
35691;SDS011;26978;44.830;-0.674;2022-07-04T11:25:15;2.72;;;0.80;;
35691;SDS011;26978;44.830;-0.674;2022-07-04T11:27:41;3.33;;;0.85;;
35691;SDS011;26978;44.830;-0.674;2022-07-04T11:30:07;4.63;;;1.17;;
35691;SDS011;26978;44.830;-0.674;2022-07-04T11:32:35;3.20;;;0.75;;
35691;SDS011;26978;44.830;-0.674;2022-07-04T11:35:05;6.38;;;1.25;;
35691;SDS011;26978;44.830;-0.674;2022-07-04T11:37:32;7.63;;;0.93;;
35691;SDS011;26978;44.830;-0.674;2022-07-04T11:39:58;2.35;;;0.80;;
35691;SDS011;26978;44.830;-0.674;2022-07-04T11:45:50;7.65;;;0.90;;
35691;SDS011;26978;44.830;-0.674;2022-07-04T11:48:21;2.63;;;1.13;;
35691;SDS011;26978;44.830;-0.674;2022-07-04T11:50:46;4.50;;;1.17;;
35691;SDS011;26978;44.830;-0.674;2022-07-04T11:53:12;2.22;;;0.77;;
35691;SDS011;26978;44.830;-0.674;2022-07-04T11:55:38;5.22;;;0.85;;
35691;SDS011;26978;44.830;-0.674;2022-07-04T11:58:03;4.47;;;1.00;;
35691;SDS011;26978;44.830;-0.674;2022-07-04T12:00:29;7.97;;;1.00;;
35691;SDS011;26978;44.830;-0.674;2022-07-04T12:02:58;2.00;;;1.05;;
35691;SDS011;26978;44.830;-0.674;2022-07-04T12:05:25;4.30;;;0.75;;
35691;SDS011;26978;44.830;-0.674;2022-07-04T12:07:51;8.23;;;0.93;;
35691;SDS011;26978;44.830;-0.674;2022-07-04T12:10:17;3.28;;;0.70;;
35691;SDS011;26978;44.830;-0.674;2022-07-04T12:12:57;5.03;;;0.88;;
35691;SDS011;26978;44.830;-0.674;2022-07-04T12:15:41;3.42;;;0.68;;
35691;SDS011;26978;44.830;-0.674;2022-07-04T12:18:29;3.78;;;0.70;;
35691;SDS011;26978;44.830;-0.674;2022-07-04T12:21:10;3.45;;;0.95;;
35691;SDS011;26978;44.830;-0.674;2022-07-04T12:23:38;3.92;;;1.00;;
35691;SDS011;26978;44.830;-0.674;2022-07-04T12:26:05;2.45;;;0.80;;
35691;SDS011;26978;44.830;-0.674;2022-07-04T12:28:34;2.42;;;0.60;;
35691;SDS011;26978;44.830;-0.674;2022-07-04T12:31:04;3.95;;;1.02;;
35691;SDS011;26978;44.830;-0.674;2022-07-04T12:33:30;3.83;;;0.85;;
35691;SDS011;26978;44.830;-0.674;2022-07-04T12:36:02;4.43;;;0.80;;
35691;SDS011;26978;44.830;-0.674;2022-07-04T12:40:59;5.28;;;0.98;;
35691;SDS011;26978;44.830;-0.674;2022-07-04T12:43:43;2.15;;;0.70;;
35691;SDS011;26978;44.830;-0.674;2022-07-04T12:46:14;1.27;;;0.70;;
35691;SDS011;26978;44.830;-0.674;2022-07-04T12:48:49;4.32;;;0.80;;
35691;SDS011;26978;44.830;-0.674;2022-07-04T12:51:26;2.08;;;0.90;;
35691;SDS011;26978;44.830;-0.674;2022-07-04T12:53:55;7.28;;;0.70;;
35691;SDS011;26978;44.830;-0.674;2022-07-04T12:56:30;2.03;;;0.70;;
35691;SDS011;26978;44.830;-0.674;2022-07-04T12:58:59;1.52;;;0.77;;
35691;SDS011;26978;44.830;-0.674;2022-07-04T13:01:45;6.32;;;0.77;;
35691;SDS011;26978;44.830;-0.674;2022-07-04T13:04:12;2.08;;;0.70;;
35691;SDS011;26978;44.830;-0.674;2022-07-04T13:06:38;3.58;;;0.80;;
35691;SDS011;26978;44.830;-0.674;2022-07-04T13:09:05;9.55;;;1.08;;
35691;SDS011;26978;44.830;-0.674;2022-07-04T13:11:32;1.35;;;0.60;;
35691;SDS011;26978;44.830;-0.674;2022-07-04T13:16:43;4.55;;;0.70;;
35691;SDS011;26978;44.830;-0.674;2022-07-04T13:19:09;3.47;;;1.02;;
35691;SDS011;26978;44.830;-0.674;2022-07-04T13:21:35;1.27;;;0.50;;
35691;SDS011;26978;44.830;-0.674;2022-07-04T13:24:01;3.15;;;0.73;;
35691;SDS011;26978;44.830;-0.674;2022-07-04T13:26:27;5.18;;;0.60;;
35691;SDS011;26978;44.830;-0.674;2022-07-04T13:28:55;0.60;;;0.50;;
35691;SDS011;26978;44.830;-0.674;2022-07-04T13:31:21;1.95;;;0.32;;
35691;SDS011;26978;44.830;-0.674;2022-07-04T13:33:47;5.25;;;0.60;;
35691;SDS011;26978;44.830;-0.674;2022-07-04T13:36:13;2.80;;;0.57;;
35691;SDS011;26978;44.830;-0.674;2022-07-04T13:38:39;1.67;;;0.73;;
35691;SDS011;26978;44.830;-0.674;2022-07-04T13:41:06;2.20;;;0.50;;
35691;SDS011;26978;44.830;-0.674;2022-07-04T13:43:31;2.70;;;0.55;;
35691;SDS011;26978;44.830;-0.674;2022-07-04T13:45:57;3.97;;;0.70;;
35691;SDS011;26978;44.830;-0.674;2022-07-04T13:48:23;4.30;;;0.68;;
35691;SDS011;26978;44.830;-0.674;2022-07-04T13:50:49;4.60;;;0.60;;
35691;SDS011;26978;44.830;-0.674;2022-07-04T13:53:15;1.83;;;1.00;;
35691;SDS011;26978;44.830;-0.674;2022-07-04T13:55:41;3.33;;;0.73;;
35691;SDS011;26978;44.830;-0.674;2022-07-04T13:58:09;1.58;;;0.77;;
35691;SDS011;26978;44.830;-0.674;2022-07-04T14:00:35;2.72;;;0.70;;
35691;SDS011;26978;44.830;-0.674;2022-07-04T14:03:03;3.47;;;0.82;;
35691;SDS011;26978;44.830;-0.674;2022-07-04T14:05:29;4.05;;;0.55;;
35691;SDS011;26978;44.830;-0.674;2022-07-04T14:07:56;4.47;;;0.80;;
35691;SDS011;26978;44.830;-0.674;2022-07-04T14:10:22;3.05;;;0.60;;
35691;SDS011;26978;44.830;-0.674;2022-07-04T14:12:48;1.23;;;0.93;;
35691;SDS011;26978;44.830;-0.674;2022-07-04T14:15:14;1.30;;;0.45;;
35691;SDS011;26978;44.830;-0.674;2022-07-04T14:17:39;2.58;;;0.60;;
35691;SDS011;26978;44.830;-0.674;2022-07-04T14:20:06;5.25;;;0.70;;
35691;SDS011;26978;44.830;-0.674;2022-07-04T14:22:33;4.55;;;0.60;;
35691;SDS011;26978;44.830;-0.674;2022-07-04T14:25:03;2.13;;;0.60;;
35691;SDS011;26978;44.830;-0.674;2022-07-04T14:27:29;1.40;;;0.68;;
35691;SDS011;26978;44.830;-0.674;2022-07-04T14:29:56;2.35;;;0.68;;
35691;SDS011;26978;44.830;-0.674;2022-07-04T14:32:22;3.03;;;0.63;;
35691;SDS011;26978;44.830;-0.674;2022-07-04T14:34:47;1.20;;;0.52;;
35691;SDS011;26978;44.830;-0.674;2022-07-04T14:37:13;1.50;;;0.60;;
35691;SDS011;26978;44.830;-0.674;2022-07-04T14:39:39;2.33;;;0.82;;
35691;SDS011;26978;44.830;-0.674;2022-07-04T14:42:05;2.33;;;0.60;;
35691;SDS011;26978;44.830;-0.674;2022-07-04T14:44:31;1.35;;;0.80;;
35691;SDS011;26978;44.830;-0.674;2022-07-04T14:47:00;1.38;;;0.55;;
35691;SDS011;26978;44.830;-0.674;2022-07-04T14:49:26;2.22;;;0.40;;
35691;SDS011;26978;44.830;-0.674;2022-07-04T14:51:52;1.40;;;0.50;;
35691;SDS011;26978;44.830;-0.674;2022-07-04T14:54:18;5.20;;;0.63;;
35691;SDS011;26978;44.830;-0.674;2022-07-04T14:56:43;2.63;;;0.73;;
35691;SDS011;26978;44.830;-0.674;2022-07-04T14:59:09;1.73;;;0.57;;
35691;SDS011;26978;44.830;-0.674;2022-07-04T15:01:35;2.30;;;0.60;;
35691;SDS011;26978;44.830;-0.674;2022-07-04T15:04:00;2.22;;;0.40;;